sensor_id;sensor_type;location;lat;lon;timestamp;P1;durP1;ratioP1;P2;durP2;ratioP2
58808;SDS011;44579;51.672;7.834;2022-09-16T00:00:57;4.50;;;0.90;;
58808;SDS011;44579;51.672;7.834;2022-09-16T00:03:24;9.95;;;1.23;;
58808;SDS011;44579;51.672;7.834;2022-09-16T00:05:51;6.10;;;0.90;;
58808;SDS011;44579;51.672;7.834;2022-09-16T00:08:19;11.95;;;1.65;;
58808;SDS011;44579;51.672;7.834;2022-09-16T00:10:48;7.25;;;1.20;;
58808;SDS011;44579;51.672;7.834;2022-09-16T00:13:15;6.38;;;1.35;;
58808;SDS011;44579;51.672;7.834;2022-09-16T00:15:44;10.18;;;1.30;;
58808;SDS011;44579;51.672;7.834;2022-09-16T00:18:13;9.10;;;1.30;;
58808;SDS011;44579;51.672;7.834;2022-09-16T00:20:47;7.53;;;1.50;;
58808;SDS011;44579;51.672;7.834;2022-09-16T00:23:19;2.67;;;1.35;;
58808;SDS011;44579;51.672;7.834;2022-09-16T00:25:51;6.95;;;1.38;;
58808;SDS011;44579;51.672;7.834;2022-09-16T00:28:20;3.92;;;1.63;;
58808;SDS011;44579;51.672;7.834;2022-09-16T00:30:49;16.65;;;1.80;;
58808;SDS011;44579;51.672;7.834;2022-09-16T00:38:11;6.47;;;1.30;;
58808;SDS011;44579;51.672;7.834;2022-09-16T00:40:45;13.07;;;1.63;;
58808;SDS011;44579;51.672;7.834;2022-09-16T00:43:14;3.15;;;1.52;;
58808;SDS011;44579;51.672;7.834;2022-09-16T00:45:44;9.93;;;1.90;;
58808;SDS011;44579;51.672;7.834;2022-09-16T00:48:19;16.73;;;2.63;;
58808;SDS011;44579;51.672;7.834;2022-09-16T00:50:50;3.97;;;0.98;;
58808;SDS011;44579;51.672;7.834;2022-09-16T00:53:22;17.90;;;1.90;;
58808;SDS011;44579;51.672;7.834;2022-09-16T00:55:53;2.50;;;1.27;;
58808;SDS011;44579;51.672;7.834;2022-09-16T00:58:38;4.40;;;1.20;;
58808;SDS011;44579;51.672;7.834;2022-09-16T01:01:09;10.02;;;2.00;;
58808;SDS011;44579;51.672;7.834;2022-09-16T01:03:44;9.00;;;1.60;;
58808;SDS011;44579;51.672;7.834;2022-09-16T01:06:14;5.82;;;1.20;;
58808;SDS011;44579;51.672;7.834;2022-09-16T01:08:43;6.18;;;1.27;;
58808;SDS011;44579;51.672;7.834;2022-09-16T01:11:10;10.60;;;1.75;;
58808;SDS011;44579;51.672;7.834;2022-09-16T01:13:37;4.55;;;1.35;;
58808;SDS011;44579;51.672;7.834;2022-09-16T01:16:24;9.13;;;1.42;;
58808;SDS011;44579;51.672;7.834;2022-09-16T01:19:08;9.00;;;1.60;;
58808;SDS011;44579;51.672;7.834;2022-09-16T01:21:59;10.20;;;1.50;;
58808;SDS011;44579;51.672;7.834;2022-09-16T01:24:48;6.28;;;1.30;;
58808;SDS011;44579;51.672;7.834;2022-09-16T01:33:16;10.40;;;2.00;;
58808;SDS011;44579;51.672;7.834;2022-09-16T01:36:21;3.13;;;1.23;;
58808;SDS011;44579;51.672;7.834;2022-09-16T01:44:41;6.45;;;1.65;;
58808;SDS011;44579;51.672;7.834;2022-09-16T01:47:21;3.90;;;1.17;;
58808;SDS011;44579;51.672;7.834;2022-09-16T01:50:02;10.35;;;1.80;;
58808;SDS011;44579;51.672;7.834;2022-09-16T01:58:09;12.20;;;1.50;;
58808;SDS011;44579;51.672;7.834;2022-09-16T02:00:48;5.45;;;1.35;;
58808;SDS011;44579;51.672;7.834;2022-09-16T02:03:20;11.82;;;1.52;;
58808;SDS011;44579;51.672;7.834;2022-09-16T02:05:56;9.98;;;1.60;;
58808;SDS011;44579;51.672;7.834;2022-09-16T02:08:38;16.52;;;2.15;;
58808;SDS011;44579;51.672;7.834;2022-09-16T02:11:19;3.42;;;1.25;;
58808;SDS011;44579;51.672;7.834;2022-09-16T02:16:25;9.25;;;1.65;;
58808;SDS011;44579;51.672;7.834;2022-09-16T02:19:05;17.70;;;2.03;;
58808;SDS011;44579;51.672;7.834;2022-09-16T02:21:38;0.65;;;0.47;;
58808;SDS011;44579;51.672;7.834;2022-09-16T02:24:14;4.30;;;1.30;;
58808;SDS011;44579;51.672;7.834;2022-09-16T02:26:45;9.30;;;2.67;;
58808;SDS011;44579;51.672;7.834;2022-09-16T02:29:22;7.60;;;1.33;;
58808;SDS011;44579;51.672;7.834;2022-09-16T02:31:53;5.68;;;1.80;;
58808;SDS011;44579;51.672;7.834;2022-09-16T02:34:27;2.55;;;1.02;;
58808;SDS011;44579;51.672;7.834;2022-09-16T02:37:00;5.13;;;2.15;;
58808;SDS011;44579;51.672;7.834;2022-09-16T02:39:33;9.75;;;1.90;;
58808;SDS011;44579;51.672;7.834;2022-09-16T02:42:04;7.82;;;1.25;;
58808;SDS011;44579;51.672;7.834;2022-09-16T02:44:31;9.10;;;1.70;;
58808;SDS011;44579;51.672;7.834;2022-09-16T02:47:02;6.55;;;1.25;;
58808;SDS011;44579;51.672;7.834;2022-09-16T02:52:37;7.07;;;1.70;;
58808;SDS011;44579;51.672;7.834;2022-09-16T02:55:43;4.65;;;1.75;;
58808;SDS011;44579;51.672;7.834;2022-09-16T02:58:20;9.43;;;1.80;;
58808;SDS011;44579;51.672;7.834;2022-09-16T03:00:48;8.95;;;1.60;;
58808;SDS011;44579;51.672;7.834;2022-09-16T03:03:18;5.93;;;1.92;;
58808;SDS011;44579;51.672;7.834;2022-09-16T03:05:57;8.10;;;2.17;;
58808;SDS011;44579;51.672;7.834;2022-09-16T03:08:26;9.48;;;1.80;;
58808;SDS011;44579;51.672;7.834;2022-09-16T03:10:53;15.55;;;2.22;;
58808;SDS011;44579;51.672;7.834;2022-09-16T03:13:38;14.75;;;2.20;;
58808;SDS011;44579;51.672;7.834;2022-09-16T03:16:16;7.05;;;2.30;;
58808;SDS011;44579;51.672;7.834;2022-09-16T03:19:08;12.27;;;2.08;;
58808;SDS011;44579;51.672;7.834;2022-09-16T03:22:00;8.32;;;2.00;;
58808;SDS011;44579;51.672;7.834;2022-09-16T03:24:44;7.20;;;2.25;;
58808;SDS011;44579;51.672;7.834;2022-09-16T03:27:21;9.25;;;2.30;;
58808;SDS011;44579;51.672;7.834;2022-09-16T03:30:02;12.57;;;2.30;;
58808;SDS011;44579;51.672;7.834;2022-09-16T03:35:19;12.05;;;2.15;;
58808;SDS011;44579;51.672;7.834;2022-09-16T03:37:47;13.43;;;2.45;;
58808;SDS011;44579;51.672;7.834;2022-09-16T03:40:16;8.82;;;2.20;;
58808;SDS011;44579;51.672;7.834;2022-09-16T03:42:45;5.03;;;2.35;;
58808;SDS011;44579;51.672;7.834;2022-09-16T03:45:13;17.25;;;3.28;;
58808;SDS011;44579;51.672;7.834;2022-09-16T03:47:42;14.57;;;2.63;;
58808;SDS011;44579;51.672;7.834;2022-09-16T03:50:11;9.27;;;2.38;;
58808;SDS011;44579;51.672;7.834;2022-09-16T03:52:39;9.60;;;2.47;;
58808;SDS011;44579;51.672;7.834;2022-09-16T03:55:07;10.35;;;2.70;;
58808;SDS011;44579;51.672;7.834;2022-09-16T03:57:36;11.63;;;2.65;;
58808;SDS011;44579;51.672;7.834;2022-09-16T04:02:36;14.73;;;3.15;;
58808;SDS011;44579;51.672;7.834;2022-09-16T04:05:04;19.92;;;3.53;;
58808;SDS011;44579;51.672;7.834;2022-09-16T04:07:31;6.25;;;2.25;;
58808;SDS011;44579;51.672;7.834;2022-09-16T04:09:59;18.50;;;3.20;;
58808;SDS011;44579;51.672;7.834;2022-09-16T04:12:27;23.05;;;2.80;;
58808;SDS011;44579;51.672;7.834;2022-09-16T04:14:54;22.35;;;3.72;;
58808;SDS011;44579;51.672;7.834;2022-09-16T04:17:21;12.43;;;3.22;;
58808;SDS011;44579;51.672;7.834;2022-09-16T04:19:48;12.38;;;2.47;;
58808;SDS011;44579;51.672;7.834;2022-09-16T04:22:15;14.40;;;3.35;;
58808;SDS011;44579;51.672;7.834;2022-09-16T04:24:42;6.38;;;1.95;;
58808;SDS011;44579;51.672;7.834;2022-09-16T04:27:09;15.98;;;1.35;;
58808;SDS011;44579;51.672;7.834;2022-09-16T04:29:36;15.40;;;2.20;;
58808;SDS011;44579;51.672;7.834;2022-09-16T04:32:03;2.90;;;1.50;;
58808;SDS011;44579;51.672;7.834;2022-09-16T04:34:30;5.70;;;1.85;;
58808;SDS011;44579;51.672;7.834;2022-09-16T04:36:57;6.93;;;1.02;;
58808;SDS011;44579;51.672;7.834;2022-09-16T04:39:24;9.07;;;2.20;;
58808;SDS011;44579;51.672;7.834;2022-09-16T04:41:51;12.82;;;2.05;;
58808;SDS011;44579;51.672;7.834;2022-09-16T04:44:18;9.88;;;2.08;;
58808;SDS011;44579;51.672;7.834;2022-09-16T04:46:45;12.90;;;3.72;;
58808;SDS011;44579;51.672;7.834;2022-09-16T04:49:13;12.25;;;4.60;;
58808;SDS011;44579;51.672;7.834;2022-09-16T04:51:40;7.75;;;2.55;;
58808;SDS011;44579;51.672;7.834;2022-09-16T04:54:06;3.53;;;1.03;;
58808;SDS011;44579;51.672;7.834;2022-09-16T04:56:34;12.25;;;4.53;;
58808;SDS011;44579;51.672;7.834;2022-09-16T04:59:02;9.38;;;1.98;;
58808;SDS011;44579;51.672;7.834;2022-09-16T05:01:33;10.27;;;2.10;;
58808;SDS011;44579;51.672;7.834;2022-09-16T05:04:03;5.22;;;1.35;;
58808;SDS011;44579;51.672;7.834;2022-09-16T05:06:32;10.80;;;1.48;;
58808;SDS011;44579;51.672;7.834;2022-09-16T05:09:01;14.15;;;2.08;;
58808;SDS011;44579;51.672;7.834;2022-09-16T05:14:02;5.60;;;1.15;;
58808;SDS011;44579;51.672;7.834;2022-09-16T05:16:31;12.90;;;1.63;;
58808;SDS011;44579;51.672;7.834;2022-09-16T05:21:27;6.35;;;1.67;;
58808;SDS011;44579;51.672;7.834;2022-09-16T05:23:54;14.90;;;2.00;;
58808;SDS011;44579;51.672;7.834;2022-09-16T05:26:26;5.80;;;1.52;;
58808;SDS011;44579;51.672;7.834;2022-09-16T05:28:55;22.67;;;2.13;;
58808;SDS011;44579;51.672;7.834;2022-09-16T05:31:23;15.88;;;2.72;;
58808;SDS011;44579;51.672;7.834;2022-09-16T05:33:55;15.55;;;2.05;;
58808;SDS011;44579;51.672;7.834;2022-09-16T05:36:28;7.75;;;1.33;;
58808;SDS011;44579;51.672;7.834;2022-09-16T05:38:57;15.75;;;2.83;;
58808;SDS011;44579;51.672;7.834;2022-09-16T05:41:44;23.83;;;2.72;;
58808;SDS011;44579;51.672;7.834;2022-09-16T05:46:39;12.80;;;2.88;;
58808;SDS011;44579;51.672;7.834;2022-09-16T05:49:06;18.80;;;3.22;;
58808;SDS011;44579;51.672;7.834;2022-09-16T05:51:35;16.83;;;2.75;;
58808;SDS011;44579;51.672;7.834;2022-09-16T05:54:03;20.08;;;3.20;;
58808;SDS011;44579;51.672;7.834;2022-09-16T05:56:31;18.92;;;2.78;;
58808;SDS011;44579;51.672;7.834;2022-09-16T05:58:59;12.07;;;2.85;;
58808;SDS011;44579;51.672;7.834;2022-09-16T06:01:28;9.45;;;2.90;;
58808;SDS011;44579;51.672;7.834;2022-09-16T06:03:56;11.43;;;2.38;;
58808;SDS011;44579;51.672;7.834;2022-09-16T06:06:32;15.30;;;2.30;;
58808;SDS011;44579;51.672;7.834;2022-09-16T06:09:05;18.75;;;3.03;;
58808;SDS011;44579;51.672;7.834;2022-09-16T06:11:35;9.10;;;3.60;;
58808;SDS011;44579;51.672;7.834;2022-09-16T06:14:03;13.20;;;3.20;;
58808;SDS011;44579;51.672;7.834;2022-09-16T06:21:26;21.10;;;1.70;;
58808;SDS011;44579;51.672;7.834;2022-09-16T06:23:56;7.90;;;2.13;;
58808;SDS011;44579;51.672;7.834;2022-09-16T06:26:24;25.13;;;2.90;;
58808;SDS011;44579;51.672;7.834;2022-09-16T06:28:52;6.45;;;2.05;;
58808;SDS011;44579;51.672;7.834;2022-09-16T06:31:21;6.63;;;1.90;;
58808;SDS011;44579;51.672;7.834;2022-09-16T06:33:50;14.57;;;2.28;;
58808;SDS011;44579;51.672;7.834;2022-09-16T06:36:19;12.98;;;2.47;;
58808;SDS011;44579;51.672;7.834;2022-09-16T06:38:47;10.68;;;2.03;;
58808;SDS011;44579;51.672;7.834;2022-09-16T06:41:16;10.25;;;2.47;;
58808;SDS011;44579;51.672;7.834;2022-09-16T06:43:45;9.00;;;0.80;;
58808;SDS011;44579;51.672;7.834;2022-09-16T06:46:14;9.98;;;1.50;;
58808;SDS011;44579;51.672;7.834;2022-09-16T06:48:47;15.07;;;1.63;;
58808;SDS011;44579;51.672;7.834;2022-09-16T06:51:20;3.90;;;2.08;;
58808;SDS011;44579;51.672;7.834;2022-09-16T06:53:49;14.38;;;2.53;;
58808;SDS011;44579;51.672;7.834;2022-09-16T06:56:19;4.82;;;1.70;;
58808;SDS011;44579;51.672;7.834;2022-09-16T06:58:47;10.70;;;2.45;;
58808;SDS011;44579;51.672;7.834;2022-09-16T07:01:19;0.45;;;0.45;;
58808;SDS011;44579;51.672;7.834;2022-09-16T07:03:54;8.60;;;2.60;;
58808;SDS011;44579;51.672;7.834;2022-09-16T07:06:26;7.63;;;2.03;;
58808;SDS011;44579;51.672;7.834;2022-09-16T07:09:15;7.03;;;2.47;;
58808;SDS011;44579;51.672;7.834;2022-09-16T07:14:09;17.38;;;2.90;;
58808;SDS011;44579;51.672;7.834;2022-09-16T07:16:36;5.32;;;2.30;;
58808;SDS011;44579;51.672;7.834;2022-09-16T07:19:03;13.25;;;3.55;;
58808;SDS011;44579;51.672;7.834;2022-09-16T07:21:31;18.55;;;3.10;;
58808;SDS011;44579;51.672;7.834;2022-09-16T07:23:58;7.22;;;2.80;;
58808;SDS011;44579;51.672;7.834;2022-09-16T07:26:28;16.98;;;2.58;;
58808;SDS011;44579;51.672;7.834;2022-09-16T07:28:57;12.05;;;2.50;;
58808;SDS011;44579;51.672;7.834;2022-09-16T07:31:27;5.50;;;1.45;;
58808;SDS011;44579;51.672;7.834;2022-09-16T07:33:56;16.05;;;2.65;;
58808;SDS011;44579;51.672;7.834;2022-09-16T07:36:33;7.53;;;2.13;;
58808;SDS011;44579;51.672;7.834;2022-09-16T07:39:03;16.63;;;2.13;;
58808;SDS011;44579;51.672;7.834;2022-09-16T07:41:34;2.40;;;1.83;;
58808;SDS011;44579;51.672;7.834;2022-09-16T07:44:04;13.38;;;2.25;;
58808;SDS011;44579;51.672;7.834;2022-09-16T07:46:33;5.25;;;1.17;;
58808;SDS011;44579;51.672;7.834;2022-09-16T07:49:02;12.43;;;1.90;;
58808;SDS011;44579;51.672;7.834;2022-09-16T07:51:30;4.53;;;1.30;;
58808;SDS011;44579;51.672;7.834;2022-09-16T07:53:59;11.20;;;1.70;;
58808;SDS011;44579;51.672;7.834;2022-09-16T07:56:30;6.20;;;2.03;;
58808;SDS011;44579;51.672;7.834;2022-09-16T07:59:00;7.55;;;1.77;;
58808;SDS011;44579;51.672;7.834;2022-09-16T08:01:27;3.80;;;1.58;;
58808;SDS011;44579;51.672;7.834;2022-09-16T08:03:57;13.90;;;1.98;;
58808;SDS011;44579;51.672;7.834;2022-09-16T08:08:53;8.02;;;2.58;;
58808;SDS011;44579;51.672;7.834;2022-09-16T08:11:28;7.53;;;2.05;;
58808;SDS011;44579;51.672;7.834;2022-09-16T08:13:58;7.18;;;1.13;;
58808;SDS011;44579;51.672;7.834;2022-09-16T08:16:26;7.60;;;1.20;;
58808;SDS011;44579;51.672;7.834;2022-09-16T08:18:54;2.55;;;0.98;;
58808;SDS011;44579;51.672;7.834;2022-09-16T08:21:23;7.53;;;1.27;;
58808;SDS011;44579;51.672;7.834;2022-09-16T08:23:51;0.73;;;0.50;;
58808;SDS011;44579;51.672;7.834;2022-09-16T08:26:19;4.22;;;0.90;;
58808;SDS011;44579;51.672;7.834;2022-09-16T08:28:47;5.75;;;0.82;;
58808;SDS011;44579;51.672;7.834;2022-09-16T08:31:34;5.03;;;1.00;;
58808;SDS011;44579;51.672;7.834;2022-09-16T08:34:05;9.63;;;1.45;;
58808;SDS011;44579;51.672;7.834;2022-09-16T08:36:32;2.65;;;0.73;;
58808;SDS011;44579;51.672;7.834;2022-09-16T08:47:45;10.77;;;1.52;;
58808;SDS011;44579;51.672;7.834;2022-09-16T08:50:41;4.40;;;1.00;;
58808;SDS011;44579;51.672;7.834;2022-09-16T08:53:44;6.95;;;1.38;;
58808;SDS011;44579;51.672;7.834;2022-09-16T08:56:33;9.23;;;1.08;;
58808;SDS011;44579;51.672;7.834;2022-09-16T08:59:04;3.45;;;0.63;;
58808;SDS011;44579;51.672;7.834;2022-09-16T09:01:44;7.97;;;1.40;;
58808;SDS011;44579;51.672;7.834;2022-09-16T09:04:16;13.35;;;1.35;;
58808;SDS011;44579;51.672;7.834;2022-09-16T09:06:46;9.43;;;0.70;;
58808;SDS011;44579;51.672;7.834;2022-09-16T09:12:12;3.03;;;0.60;;
58808;SDS011;44579;51.672;7.834;2022-09-16T09:17:50;9.02;;;1.50;;
58808;SDS011;44579;51.672;7.834;2022-09-16T09:23:43;11.55;;;1.48;;
58808;SDS011;44579;51.672;7.834;2022-09-16T09:31:52;15.20;;;1.08;;
58808;SDS011;44579;51.672;7.834;2022-09-16T09:39:59;22.38;;;1.92;;
58808;SDS011;44579;51.672;7.834;2022-09-16T09:42:38;13.80;;;1.85;;
58808;SDS011;44579;51.672;7.834;2022-09-16T09:50:32;30.23;;;1.98;;
58808;SDS011;44579;51.672;7.834;2022-09-16T09:55:37;13.68;;;1.25;;
58808;SDS011;44579;51.672;7.834;2022-09-16T09:58:10;3.92;;;0.93;;
58808;SDS011;44579;51.672;7.834;2022-09-16T10:00:50;12.95;;;1.27;;
58808;SDS011;44579;51.672;7.834;2022-09-16T10:03:21;27.98;;;2.53;;
58808;SDS011;44579;51.672;7.834;2022-09-16T10:05:48;2.53;;;0.52;;
58808;SDS011;44579;51.672;7.834;2022-09-16T10:08:17;9.73;;;1.33;;
58808;SDS011;44579;51.672;7.834;2022-09-16T10:10:50;18.42;;;1.20;;
58808;SDS011;44579;51.672;7.834;2022-09-16T10:13:20;11.90;;;0.93;;
58808;SDS011;44579;51.672;7.834;2022-09-16T10:15:48;7.90;;;1.70;;
58808;SDS011;44579;51.672;7.834;2022-09-16T10:20:55;16.10;;;1.10;;
58808;SDS011;44579;51.672;7.834;2022-09-16T10:23:33;20.38;;;1.20;;
58808;SDS011;44579;51.672;7.834;2022-09-16T10:26:02;10.50;;;1.63;;
58808;SDS011;44579;51.672;7.834;2022-09-16T10:28:55;16.85;;;1.20;;
58808;SDS011;44579;51.672;7.834;2022-09-16T10:31:24;5.13;;;0.70;;
58808;SDS011;44579;51.672;7.834;2022-09-16T10:33:59;17.13;;;1.67;;
58808;SDS011;44579;51.672;7.834;2022-09-16T10:36:28;7.78;;;1.10;;
58808;SDS011;44579;51.672;7.834;2022-09-16T10:39:00;3.42;;;0.32;;
58808;SDS011;44579;51.672;7.834;2022-09-16T10:41:32;6.15;;;0.60;;
58808;SDS011;44579;51.672;7.834;2022-09-16T10:49:43;14.30;;;1.92;;
58808;SDS011;44579;51.672;7.834;2022-09-16T10:52:20;8.10;;;0.65;;
58808;SDS011;44579;51.672;7.834;2022-09-16T10:54:49;1.27;;;0.30;;
58808;SDS011;44579;51.672;7.834;2022-09-16T10:57:27;10.50;;;1.60;;
58808;SDS011;44579;51.672;7.834;2022-09-16T11:05:25;7.75;;;0.75;;
58808;SDS011;44579;51.672;7.834;2022-09-16T11:08:14;5.32;;;0.90;;
58808;SDS011;44579;51.672;7.834;2022-09-16T11:11:07;2.63;;;0.35;;
58808;SDS011;44579;51.672;7.834;2022-09-16T11:22:02;2.72;;;0.50;;
58808;SDS011;44579;51.672;7.834;2022-09-16T11:27:44;4.47;;;0.43;;
58808;SDS011;44579;51.672;7.834;2022-09-16T11:30:19;3.03;;;0.47;;
58808;SDS011;44579;51.672;7.834;2022-09-16T11:32:52;6.75;;;0.60;;
58808;SDS011;44579;51.672;7.834;2022-09-16T11:41:15;6.63;;;0.77;;
58808;SDS011;44579;51.672;7.834;2022-09-16T11:57:54;2.05;;;0.35;;
58808;SDS011;44579;51.672;7.834;2022-09-16T12:00:28;5.10;;;0.50;;
58808;SDS011;44579;51.672;7.834;2022-09-16T12:03:07;1.52;;;0.40;;
58808;SDS011;44579;51.672;7.834;2022-09-16T12:05:43;2.20;;;0.60;;
58808;SDS011;44579;51.672;7.834;2022-09-16T12:08:27;4.43;;;0.80;;
58808;SDS011;44579;51.672;7.834;2022-09-16T12:13:41;0.60;;;0.20;;
58808;SDS011;44579;51.672;7.834;2022-09-16T12:16:16;7.57;;;0.95;;
58808;SDS011;44579;51.672;7.834;2022-09-16T12:18:51;4.55;;;0.75;;
58808;SDS011;44579;51.672;7.834;2022-09-16T12:21:24;6.88;;;0.80;;
58808;SDS011;44579;51.672;7.834;2022-09-16T12:23:54;0.28;;;0.17;;
58808;SDS011;44579;51.672;7.834;2022-09-16T12:26:31;0.93;;;0.25;;
58808;SDS011;44579;51.672;7.834;2022-09-16T12:29:07;3.88;;;0.65;;
58808;SDS011;44579;51.672;7.834;2022-09-16T12:35:18;0.20;;;0.20;;
58808;SDS011;44579;51.672;7.834;2022-09-16T12:37:50;3.75;;;0.80;;
58808;SDS011;44579;51.672;7.834;2022-09-16T12:40:20;2.05;;;0.40;;
58808;SDS011;44579;51.672;7.834;2022-09-16T13:03:02;2.05;;;0.50;;
58808;SDS011;44579;51.672;7.834;2022-09-16T13:05:31;2.80;;;0.40;;
58808;SDS011;44579;51.672;7.834;2022-09-16T13:08:02;1.45;;;0.40;;
58808;SDS011;44579;51.672;7.834;2022-09-16T13:10:44;3.33;;;0.70;;
58808;SDS011;44579;51.672;7.834;2022-09-16T13:16:03;4.00;;;0.35;;
58808;SDS011;44579;51.672;7.834;2022-09-16T13:21:27;2.08;;;0.40;;
58808;SDS011;44579;51.672;7.834;2022-09-16T13:26:43;0.30;;;0.20;;
58808;SDS011;44579;51.672;7.834;2022-09-16T13:29:45;0.65;;;0.45;;
58808;SDS011;44579;51.672;7.834;2022-09-16T13:32:27;1.95;;;0.40;;
58808;SDS011;44579;51.672;7.834;2022-09-16T13:35:20;1.65;;;0.55;;
58808;SDS011;44579;51.672;7.834;2022-09-16T13:37:49;3.55;;;0.68;;
58808;SDS011;44579;51.672;7.834;2022-09-16T13:40:20;1.58;;;0.50;;
58808;SDS011;44579;51.672;7.834;2022-09-16T13:42:50;3.83;;;0.75;;
58808;SDS011;44579;51.672;7.834;2022-09-16T13:45:49;7.15;;;1.15;;
58808;SDS011;44579;51.672;7.834;2022-09-16T13:51:08;6.63;;;1.00;;
58808;SDS011;44579;51.672;7.834;2022-09-16T13:53:58;6.60;;;0.80;;
58808;SDS011;44579;51.672;7.834;2022-09-16T14:07:42;6.70;;;0.88;;
58808;SDS011;44579;51.672;7.834;2022-09-16T14:10:18;4.07;;;0.47;;
58808;SDS011;44579;51.672;7.834;2022-09-16T14:12:58;1.55;;;0.40;;
58808;SDS011;44579;51.672;7.834;2022-09-16T14:15:36;2.58;;;0.40;;
58808;SDS011;44579;51.672;7.834;2022-09-16T14:18:11;1.38;;;0.45;;
58808;SDS011;44579;51.672;7.834;2022-09-16T14:20:54;2.55;;;0.52;;
58808;SDS011;44579;51.672;7.834;2022-09-16T14:23:24;2.50;;;0.40;;
58808;SDS011;44579;51.672;7.834;2022-09-16T14:25:51;2.08;;;0.43;;
58808;SDS011;44579;51.672;7.834;2022-09-16T14:28:27;4.03;;;0.63;;
58808;SDS011;44579;51.672;7.834;2022-09-16T14:31:00;1.13;;;0.85;;
58808;SDS011;44579;51.672;7.834;2022-09-16T14:33:33;3.10;;;0.50;;
58808;SDS011;44579;51.672;7.834;2022-09-16T14:36:10;3.40;;;0.80;;
58808;SDS011;44579;51.672;7.834;2022-09-16T14:38:44;6.38;;;0.85;;
58808;SDS011;44579;51.672;7.834;2022-09-16T14:41:38;2.67;;;0.40;;
58808;SDS011;44579;51.672;7.834;2022-09-16T14:44:11;0.20;;;0.15;;
58808;SDS011;44579;51.672;7.834;2022-09-16T14:47:09;1.85;;;0.50;;
58808;SDS011;44579;51.672;7.834;2022-09-16T14:50:10;7.55;;;0.88;;
58808;SDS011;44579;51.672;7.834;2022-09-16T14:52:40;1.65;;;0.43;;
58808;SDS011;44579;51.672;7.834;2022-09-16T14:55:21;1.40;;;0.68;;
58808;SDS011;44579;51.672;7.834;2022-09-16T14:57:49;3.85;;;0.85;;
58808;SDS011;44579;51.672;7.834;2022-09-16T15:00:16;3.75;;;1.00;;
58808;SDS011;44579;51.672;7.834;2022-09-16T15:02:48;3.30;;;0.85;;
58808;SDS011;44579;51.672;7.834;2022-09-16T15:05:33;3.55;;;1.00;;
58808;SDS011;44579;51.672;7.834;2022-09-16T15:10:59;0.57;;;0.15;;
58808;SDS011;44579;51.672;7.834;2022-09-16T15:13:33;4.60;;;0.55;;
58808;SDS011;44579;51.672;7.834;2022-09-16T15:16:12;4.05;;;1.00;;
58808;SDS011;44579;51.672;7.834;2022-09-16T15:18:43;6.70;;;0.65;;
58808;SDS011;44579;51.672;7.834;2022-09-16T15:21:22;2.97;;;0.68;;
58808;SDS011;44579;51.672;7.834;2022-09-16T15:23:51;2.22;;;0.40;;
58808;SDS011;44579;51.672;7.834;2022-09-16T15:26:22;4.80;;;0.50;;
58808;SDS011;44579;51.672;7.834;2022-09-16T15:28:56;1.38;;;0.60;;
58808;SDS011;44579;51.672;7.834;2022-09-16T15:31:37;0.68;;;0.30;;
58808;SDS011;44579;51.672;7.834;2022-09-16T15:36:45;4.47;;;0.60;;
58808;SDS011;44579;51.672;7.834;2022-09-16T15:45:00;1.48;;;0.60;;
58808;SDS011;44579;51.672;7.834;2022-09-16T15:47:33;1.85;;;0.60;;
58808;SDS011;44579;51.672;7.834;2022-09-16T15:50:11;3.20;;;0.90;;
58808;SDS011;44579;51.672;7.834;2022-09-16T15:53:02;5.47;;;1.20;;
58808;SDS011;44579;51.672;7.834;2022-09-16T15:55:36;5.70;;;0.95;;
58808;SDS011;44579;51.672;7.834;2022-09-16T15:58:19;7.82;;;0.55;;
58808;SDS011;44579;51.672;7.834;2022-09-16T16:01:09;2.45;;;0.60;;
58808;SDS011;44579;51.672;7.834;2022-09-16T16:06:13;4.63;;;0.70;;
58808;SDS011;44579;51.672;7.834;2022-09-16T16:08:44;3.83;;;1.15;;
58808;SDS011;44579;51.672;7.834;2022-09-16T16:11:14;4.38;;;1.13;;
58808;SDS011;44579;51.672;7.834;2022-09-16T16:13:46;7.28;;;1.10;;
58808;SDS011;44579;51.672;7.834;2022-09-16T16:16:15;5.32;;;1.83;;
58808;SDS011;44579;51.672;7.834;2022-09-16T16:18:44;9.27;;;1.00;;
58808;SDS011;44579;51.672;7.834;2022-09-16T16:21:12;4.65;;;1.70;;
58808;SDS011;44579;51.672;7.834;2022-09-16T16:23:41;15.68;;;2.10;;
58808;SDS011;44579;51.672;7.834;2022-09-16T16:26:09;3.78;;;1.38;;
58808;SDS011;44579;51.672;7.834;2022-09-16T16:28:36;1.75;;;0.43;;
58808;SDS011;44579;51.672;7.834;2022-09-16T16:31:07;4.47;;;1.30;;
58808;SDS011;44579;51.672;7.834;2022-09-16T16:33:40;4.68;;;0.90;;
58808;SDS011;44579;51.672;7.834;2022-09-16T16:36:16;3.70;;;1.50;;
58808;SDS011;44579;51.672;7.834;2022-09-16T16:38:44;6.47;;;1.55;;
58808;SDS011;44579;51.672;7.834;2022-09-16T16:41:22;5.90;;;1.48;;
58808;SDS011;44579;51.672;7.834;2022-09-16T16:43:50;6.95;;;1.45;;
58808;SDS011;44579;51.672;7.834;2022-09-16T16:46:17;8.10;;;1.38;;
58808;SDS011;44579;51.672;7.834;2022-09-16T16:48:44;6.35;;;2.20;;
58808;SDS011;44579;51.672;7.834;2022-09-16T16:51:12;5.65;;;1.40;;
58808;SDS011;44579;51.672;7.834;2022-09-16T16:53:39;3.17;;;1.40;;
58808;SDS011;44579;51.672;7.834;2022-09-16T16:56:11;4.90;;;1.38;;
58808;SDS011;44579;51.672;7.834;2022-09-16T16:58:40;3.58;;;0.98;;
58808;SDS011;44579;51.672;7.834;2022-09-16T17:01:15;14.82;;;1.77;;
58808;SDS011;44579;51.672;7.834;2022-09-16T17:03:44;8.48;;;1.10;;
58808;SDS011;44579;51.672;7.834;2022-09-16T17:06:13;2.60;;;1.02;;
58808;SDS011;44579;51.672;7.834;2022-09-16T17:08:40;7.93;;;1.02;;
58808;SDS011;44579;51.672;7.834;2022-09-16T17:11:11;1.40;;;0.73;;
58808;SDS011;44579;51.672;7.834;2022-09-16T17:13:41;3.53;;;0.80;;
58808;SDS011;44579;51.672;7.834;2022-09-16T17:16:09;6.60;;;1.40;;
58808;SDS011;44579;51.672;7.834;2022-09-16T17:18:38;9.48;;;1.38;;
58808;SDS011;44579;51.672;7.834;2022-09-16T17:21:10;4.35;;;0.52;;
58808;SDS011;44579;51.672;7.834;2022-09-16T17:23:38;4.63;;;0.73;;
58808;SDS011;44579;51.672;7.834;2022-09-16T17:26:06;4.13;;;0.77;;
58808;SDS011;44579;51.672;7.834;2022-09-16T17:28:37;7.68;;;1.30;;
58808;SDS011;44579;51.672;7.834;2022-09-16T17:31:09;1.85;;;0.55;;
58808;SDS011;44579;51.672;7.834;2022-09-16T17:33:37;5.65;;;1.13;;
58808;SDS011;44579;51.672;7.834;2022-09-16T17:36:05;6.38;;;1.08;;
58808;SDS011;44579;51.672;7.834;2022-09-16T17:38:34;1.75;;;0.30;;
58808;SDS011;44579;51.672;7.834;2022-09-16T17:41:03;10.07;;;0.90;;
58808;SDS011;44579;51.672;7.834;2022-09-16T17:43:32;8.82;;;1.00;;
58808;SDS011;44579;51.672;7.834;2022-09-16T17:46:01;6.13;;;1.00;;
58808;SDS011;44579;51.672;7.834;2022-09-16T17:48:30;4.90;;;0.55;;
58808;SDS011;44579;51.672;7.834;2022-09-16T17:50:58;2.40;;;0.50;;
58808;SDS011;44579;51.672;7.834;2022-09-16T17:53:25;3.63;;;0.75;;
58808;SDS011;44579;51.672;7.834;2022-09-16T17:55:59;4.65;;;0.60;;
58808;SDS011;44579;51.672;7.834;2022-09-16T17:58:30;4.43;;;0.68;;
58808;SDS011;44579;51.672;7.834;2022-09-16T18:01:02;2.00;;;0.50;;
58808;SDS011;44579;51.672;7.834;2022-09-16T18:03:33;5.93;;;0.70;;
58808;SDS011;44579;51.672;7.834;2022-09-16T18:06:09;1.92;;;0.65;;
58808;SDS011;44579;51.672;7.834;2022-09-16T18:08:42;4.07;;;0.80;;
58808;SDS011;44579;51.672;7.834;2022-09-16T18:11:11;3.70;;;0.50;;
58808;SDS011;44579;51.672;7.834;2022-09-16T18:13:40;3.08;;;0.47;;
58808;SDS011;44579;51.672;7.834;2022-09-16T18:16:09;4.53;;;1.00;;
58808;SDS011;44579;51.672;7.834;2022-09-16T18:18:38;2.85;;;0.60;;
58808;SDS011;44579;51.672;7.834;2022-09-16T18:21:08;1.70;;;0.70;;
58808;SDS011;44579;51.672;7.834;2022-09-16T18:23:37;9.05;;;0.98;;
58808;SDS011;44579;51.672;7.834;2022-09-16T18:26:04;3.03;;;0.30;;
58808;SDS011;44579;51.672;7.834;2022-09-16T18:28:36;6.22;;;1.25;;
58808;SDS011;44579;51.672;7.834;2022-09-16T18:31:24;2.80;;;0.85;;